Terminal Aerodrome Forecast
Issued by NWS

Home | Current Version | Previous Version | Text Only | Print | Product List | Glossary On
Versions: 1 2 3 4 5 6 7 8 9 10 11 12 13 14 15 16 17 18 19 20 21 22 23 24 25 26 27 28 29 30 31 32 33 34 35 36 37 38
000
FTUS44 KLZK 211405 AAA
TAFADF
TAF AMD
KADF 211405Z 2114/2212 VRB03KT P6SM VCSH BKN015 OVC050
      WS020/19035KT
      TEMPO 2114/2116 OVC006
     FM211600 17008G15KT P6SM VCSH FEW020 BKN050 OVC250
     FM212100 16009G16KT P6SM VCSH SCT035 BKN080 BKN250
     FM220000 16007KT P6SM VCSH SCT035 BKN050 OVC100
     FM220400 17009KT P6SM VCTS BKN050CB OVC100
      TEMPO 2206/2209 VRB15G30KT 3SM TSRA OVC030CB=

USA.gov is the U.S. government's official web portal to all federal, state and local government web resources and services.